createdAt,value
2018-05-03T00:00:37.910Z,93.10
2018-05-03T00:03:07.037Z,93.50
2018-05-03T00:05:35.377Z,93.50
2018-05-03T00:08:03.677Z,93.90
2018-05-03T00:10:32.012Z,93.70
2018-05-03T00:13:00.304Z,93.40
2018-05-03T00:15:28.656Z,93.70
2018-05-03T00:17:57.036Z,93.50
2018-05-03T00:20:25.333Z,93.90
2018-05-03T00:22:53.680Z,93.30
2018-05-03T00:25:21.976Z,93.00
2018-05-03T00:27:50.321Z,93.40
2018-05-03T00:30:19.384Z,93.90
2018-05-03T00:32:47.681Z,93.90
2018-05-03T00:35:16.033Z,93.50
2018-05-03T00:37:44.383Z,93.40
2018-05-03T00:40:12.672Z,92.80
2018-05-03T00:42:42.516Z,93.60
2018-05-03T00:45:11.582Z,93.70
2018-05-03T00:47:39.893Z,93.60
2018-05-03T00:50:08.236Z,93.20
2018-05-03T00:52:36.529Z,93.90
2018-05-03T00:55:04.957Z,93.50
2018-05-03T00:57:33.256Z,93.90
2018-05-03T01:00:01.613Z,93.80
2018-05-03T01:02:29.956Z,94.40
2018-05-03T01:04:59.033Z,94.30
2018-05-03T01:07:27.424Z,94.30
2018-05-03T01:09:55.720Z,94.30
2018-05-03T01:12:24.013Z,93.90
2018-05-03T01:14:52.360Z,93.90
2018-05-03T01:17:20.653Z,94.40
2018-05-03T01:19:49.000Z,94.70
2018-05-03T01:22:18.061Z,94.60
2018-05-03T01:24:46.406Z,94.60
2018-05-03T01:27:15.465Z,94.30
2018-05-03T01:29:43.813Z,94.30
2018-05-03T01:32:12.113Z,94.40
2018-05-03T01:34:40.557Z,94.50
2018-05-03T01:37:08.897Z,94.10
2018-05-03T01:39:37.209Z,93.70
2018-05-03T01:42:05.556Z,94.00
2018-05-03T01:44:34.681Z,94.30
2018-05-03T01:47:02.977Z,94.30
2018-05-03T01:49:31.273Z,94.30
2018-05-03T01:51:59.620Z,94.70
2018-05-03T01:54:28.685Z,95.10
2018-05-03T01:56:56.981Z,95.10
2018-05-03T01:59:25.337Z,94.30
2018-05-03T02:01:53.633Z,94.00
2018-05-03T02:04:21.925Z,94.30
2018-05-03T02:06:50.281Z,94.70
2018-05-03T02:09:19.333Z,95.20
2018-05-03T02:11:47.676Z,95.20
2018-05-03T02:14:16.761Z,94.20
2018-05-03T02:16:45.106Z,94.20
2018-05-03T02:19:13.542Z,94.40
2018-05-03T02:21:41.889Z,95.00
2018-05-03T02:24:10.232Z,94.70
2018-05-03T02:26:38.670Z,94.70
2018-05-03T02:29:07.048Z,94.90
2018-05-03T02:31:35.344Z,95.30
2018-05-03T02:34:03.694Z,95.30
2018-05-03T02:36:32.797Z,94.30
2018-05-03T02:39:01.141Z,94.30
2018-05-03T02:41:29.781Z,94.40
2018-05-03T02:43:58.081Z,94.40
2018-05-03T02:46:26.461Z,94.30
2018-05-03T02:48:54.808Z,94.20
2018-05-03T02:51:23.105Z,94.30
2018-05-03T02:53:51.456Z,94.80
2018-05-03T02:56:20.513Z,94.20
2018-05-03T02:59:00.833Z,94.20
2018-05-03T03:01:47.717Z,94.70
2018-05-03T03:04:33.841Z,94.70
2018-05-03T03:07:20.037Z,94.80
2018-05-03T03:13:34.308Z,94.20
2018-05-03T03:16:20.272Z,94.20
2018-05-03T03:19:06.388Z,94.50
2018-05-03T03:28:14.718Z,95.00
2018-05-03T03:31:01.450Z,95.10
2018-05-03T03:33:41.729Z,95.10
2018-05-03T03:36:21.733Z,95.40
2018-05-03T03:39:01.949Z,95.30
2018-05-03T03:41:51.973Z,95.30
2018-05-03T03:44:32.381Z,95.50
2018-05-03T03:47:00.677Z,95.30
2018-05-03T03:49:28.969Z,95.00
2018-05-03T03:51:58.077Z,94.70
2018-05-03T03:54:26.436Z,94.70
2018-05-03T03:56:54.797Z,95.00
2018-05-03T03:59:23.161Z,95.10
2018-05-03T04:01:52.225Z,95.50
2018-05-03T04:04:20.516Z,95.40
2018-05-03T04:06:49.024Z,95.00
2018-05-03T04:09:17.320Z,94.90
2018-05-03T04:11:45.615Z,94.80
2018-05-03T04:14:15.021Z,94.80
2018-05-03T04:16:43.325Z,94.70
2018-05-03T04:19:23.609Z,94.50
2018-05-03T04:22:04.487Z,94.90
2018-05-03T04:24:45.664Z,95.10
2018-05-03T04:27:13.960Z,95.10
2018-05-03T04:29:43.021Z,95.00
2018-05-03T04:32:11.361Z,94.60
2018-05-03T04:34:40.489Z,95.30
2018-05-03T04:37:08.789Z,95.30
2018-05-03T04:39:37.134Z,95.40
2018-05-03T04:42:05.481Z,94.60
2018-05-03T04:44:33.777Z,94.60
2018-05-03T04:47:02.208Z,94.90
2018-05-03T04:49:31.195Z,94.90
2018-05-03T04:51:59.541Z,94.90
2018-05-03T04:54:27.889Z,94.80
2018-05-03T04:56:56.237Z,95.20
2018-05-03T04:59:24.533Z,95.10
2018-05-03T05:01:52.882Z,94.60
2018-05-03T05:04:21.941Z,94.60
2018-05-03T05:06:50.293Z,94.60
2018-05-03T05:09:18.585Z,94.80
2018-05-03T05:11:46.934Z,94.50
2018-05-03T05:14:15.292Z,94.60
2018-05-03T05:16:43.581Z,94.60
2018-05-03T05:19:11.882Z,94.50
2018-05-03T05:21:40.994Z,95.10
2018-05-03T05:24:09.321Z,95.10
2018-05-03T05:26:38.384Z,94.80
2018-05-03T05:29:06.729Z,94.80
2018-05-03T05:31:35.915Z,94.50
2018-05-03T05:34:04.216Z,94.50
2018-05-03T05:36:32.509Z,94.50
2018-05-03T05:39:01.696Z,94.40
2018-05-03T05:41:29.992Z,94.40
2018-05-03T05:43:58.337Z,94.20
2018-05-03T05:46:26.629Z,94.20
2018-05-03T05:48:54.973Z,94.10
2018-05-03T05:51:24.037Z,94.70
2018-05-03T05:53:52.396Z,94.70
2018-05-03T05:56:20.697Z,95.00
2018-05-03T05:58:48.995Z,94.60
2018-05-03T06:01:17.337Z,94.30
2018-05-03T06:03:45.634Z,93.80
2018-05-03T06:06:14.741Z,93.20
2018-05-03T06:08:43.832Z,93.50
2018-05-03T06:11:12.945Z,93.20
2018-05-03T06:13:42.004Z,92.90
2018-05-03T06:16:10.349Z,92.90
2018-05-03T06:18:39.456Z,93.00
2018-05-03T06:21:07.749Z,92.90
2018-05-03T06:23:36.090Z,92.30
2018-05-03T06:26:04.438Z,91.70
2018-05-03T06:28:32.753Z,92.20
2018-05-03T06:31:01.045Z,92.50
2018-05-03T06:33:29.688Z,93.50
2018-05-03T06:35:57.985Z,93.20
2018-05-03T06:38:26.284Z,91.60
2018-05-03T06:40:55.397Z,93.00
2018-05-03T06:43:24.506Z,93.50
2018-05-03T06:45:53.568Z,93.30
2018-05-03T06:48:21.928Z,93.30
2018-05-03T06:50:50.221Z,93.60
2018-05-03T06:53:18.517Z,93.00
2018-05-03T06:55:46.856Z,92.70
2018-05-03T06:58:15.149Z,92.10
2018-05-03T07:00:44.656Z,92.00
2018-05-03T07:03:13.049Z,92.00
2018-05-03T07:05:42.116Z,90.80
2018-05-03T07:08:10.463Z,90.70
2018-05-03T07:10:38.754Z,91.40
2018-05-03T07:13:07.228Z,90.90
2018-05-03T07:15:35.573Z,89.40
2018-05-03T07:18:03.993Z,87.40
2018-05-03T07:20:32.224Z,85.80
2018-05-03T07:23:01.281Z,85.00
2018-05-03T07:25:29.651Z,85.00
2018-05-03T07:27:57.941Z,84.10
2018-05-03T07:30:26.241Z,83.60
2018-05-03T07:32:54.573Z,87.60
2018-05-03T07:35:22.865Z,88.40
2018-05-03T07:37:51.978Z,87.90
2018-05-03T07:40:20.269Z,88.00
2018-05-03T07:42:49.460Z,89.00
2018-05-03T07:45:17.762Z,88.90
2018-05-03T07:47:46.148Z,89.30
2018-05-03T07:50:14.532Z,89.20
2018-05-03T07:52:42.925Z,89.10
2018-05-03T07:55:11.312Z,87.00
2018-05-03T07:57:39.653Z,87.20
2018-05-03T08:00:07.952Z,84.40
2018-05-03T08:02:36.296Z,85.40
2018-05-03T08:05:05.362Z,84.40
2018-05-03T08:07:33.701Z,84.30
2018-05-03T08:10:02.761Z,82.50
2018-05-03T08:12:31.061Z,82.40
2018-05-03T08:14:59.409Z,82.10
2018-05-03T08:17:27.697Z,78.20
2018-05-03T08:19:56.041Z,77.60
2018-05-03T08:22:24.366Z,80.30
2018-05-03T08:24:52.692Z,79.50
2018-05-03T08:27:21.017Z,81.20
2018-05-03T08:29:49.302Z,80.00
2018-05-03T08:32:17.696Z,76.00
2018-05-03T08:34:46.092Z,78.20
2018-05-03T08:37:14.376Z,79.10
2018-05-03T08:39:42.708Z,71.20
2018-05-03T08:42:11.884Z,76.40
2018-05-03T08:44:40.269Z,76.40
2018-05-03T08:47:08.549Z,74.60
2018-05-03T08:49:37.255Z,70.80
2018-05-03T08:52:05.544Z,70.50
2018-05-03T08:54:33.829Z,70.20
2018-05-03T08:57:02.170Z,72.00
2018-05-03T08:59:30.517Z,73.00
2018-05-03T09:01:58.797Z,70.10
2018-05-03T09:04:27.133Z,67.90
2018-05-03T09:06:56.177Z,68.40
2018-05-03T09:09:24.511Z,68.40
2018-05-03T09:11:53.609Z,70.00
2018-05-03T09:14:21.892Z,70.00
2018-05-03T09:16:50.272Z,69.10
2018-05-03T09:19:18.556Z,65.50
2018-05-03T09:21:46.880Z,67.80
2018-05-03T09:24:15.973Z,66.70
2018-05-03T09:26:44.252Z,66.70
2018-05-03T09:29:12.597Z,67.60
2018-05-03T09:31:40.929Z,71.70
2018-05-03T09:34:09.212Z,67.40
2018-05-03T09:36:37.544Z,64.20
2018-05-03T09:39:06.610Z,59.40
2018-05-03T09:41:35.009Z,59.30
2018-05-03T09:44:03.348Z,61.60
2018-05-03T09:46:31.638Z,60.60
2018-05-03T09:49:00.210Z,57.00
2018-05-03T09:51:29.252Z,60.80
2018-05-03T09:53:57.581Z,60.50
2018-05-03T09:56:25.912Z,57.50
2018-05-03T09:58:54.193Z,58.90
2018-05-03T10:01:23.264Z,55.10
2018-05-03T10:03:51.758Z,55.10
2018-05-03T10:06:20.040Z,56.10
2018-05-03T10:08:48.321Z,53.80
2018-05-03T10:11:16.665Z,54.00
2018-05-03T10:13:45.709Z,53.90
2018-05-03T10:16:13.993Z,53.80
2018-05-03T10:18:42.320Z,53.60
2018-05-03T10:21:10.597Z,53.80
2018-05-03T10:23:39.198Z,53.60
2018-05-03T10:26:07.477Z,52.90
2018-05-03T10:28:35.776Z,55.60
2018-05-03T10:31:04.168Z,50.50
2018-05-03T10:33:33.289Z,52.00
2018-05-03T10:36:01.643Z,51.60
2018-05-03T10:38:29.936Z,48.80
2018-05-03T10:40:58.549Z,50.00
2018-05-03T10:43:26.832Z,49.70
2018-05-03T10:45:55.140Z,50.10
2018-05-03T10:48:23.461Z,48.50
2018-05-03T10:50:52.529Z,48.20
2018-05-03T10:53:20.860Z,48.20
2018-05-03T10:55:49.152Z,48.00
2018-05-03T10:58:18.221Z,48.60
2018-05-03T11:00:48.064Z,49.70
2018-05-03T11:03:17.112Z,49.30
2018-05-03T11:05:45.536Z,49.20
2018-05-03T11:08:13.820Z,50.10
2018-05-03T11:10:42.165Z,48.50
2018-05-03T11:13:10.449Z,48.90
2018-05-03T11:15:39.496Z,45.40
2018-05-03T11:18:07.832Z,45.40
2018-05-03T11:20:36.877Z,43.70
2018-05-03T11:23:05.304Z,43.60
2018-05-03T11:25:33.585Z,44.00
2018-05-03T11:28:01.912Z,47.10
2018-05-03T11:30:30.961Z,46.60
2018-05-03T11:32:59.240Z,46.60
2018-05-03T11:35:27.665Z,49.60
2018-05-03T11:37:56.002Z,49.30
2018-05-03T11:40:25.065Z,46.70
2018-05-03T11:42:53.448Z,46.70
2018-05-03T11:45:21.745Z,47.40
2018-05-03T11:47:50.026Z,47.60
2018-05-03T11:50:18.427Z,48.10
2018-05-03T11:52:46.705Z,47.80
2018-05-03T11:55:15.037Z,46.10
2018-05-03T11:57:44.129Z,50.70
2018-05-03T12:00:13.224Z,47.60
2018-05-03T12:02:41.606Z,47.50
2018-05-03T12:05:09.877Z,46.10
2018-05-03T12:07:38.160Z,47.50
2018-05-03T12:10:06.584Z,45.20
2018-05-03T12:12:34.861Z,48.80
2018-05-03T12:15:03.189Z,46.40
2018-05-03T12:17:32.277Z,46.90
2018-05-03T12:20:01.458Z,46.80
2018-05-03T12:22:29.741Z,50.00
2018-05-03T12:24:58.156Z,48.30
2018-05-03T12:27:26.644Z,47.50
2018-05-03T12:29:54.965Z,47.20
2018-05-03T12:32:23.245Z,47.30
2018-05-03T12:34:51.694Z,46.70
2018-05-03T12:37:21.548Z,44.90
2018-05-03T12:39:49.877Z,44.80
2018-05-03T12:42:18.953Z,45.90
2018-05-03T12:44:47.232Z,45.90
2018-05-03T12:47:15.564Z,46.00
2018-05-03T12:49:44.616Z,46.40
2018-05-03T12:52:12.948Z,45.70
2018-05-03T12:54:41.313Z,43.50
2018-05-03T12:57:09.641Z,44.20
2018-05-03T12:59:38.688Z,43.60
2018-05-03T13:02:07.101Z,43.60
2018-05-03T13:04:35.432Z,43.80
2018-05-03T13:07:04.525Z,43.20
2018-05-03T13:09:32.809Z,43.10
2018-05-03T13:12:01.164Z,42.80
2018-05-03T13:14:29.445Z,43.10
2018-05-03T13:16:57.847Z,41.20
2018-05-03T13:19:26.249Z,43.50
2018-05-03T13:21:54.540Z,42.90
2018-05-03T13:24:22.868Z,45.20
2018-05-03T13:26:51.917Z,44.10
2018-05-03T13:29:20.324Z,44.00
2018-05-03T13:31:48.605Z,42.30
2018-05-03T13:34:16.888Z,43.90
2018-05-03T13:36:45.216Z,44.90
2018-05-03T13:39:13.497Z,43.60
2018-05-03T13:41:41.825Z,44.40
2018-05-03T13:44:10.170Z,44.50
2018-05-03T13:46:38.501Z,44.50
2018-05-03T13:49:07.545Z,43.30
2018-05-03T13:51:35.872Z,43.30
2018-05-03T13:54:04.214Z,42.10
2018-05-03T13:56:32.545Z,43.60
2018-05-03T13:59:00.881Z,43.20
2018-05-03T14:01:29.164Z,43.30
2018-05-03T14:03:58.324Z,43.20
2018-05-03T14:06:26.682Z,43.20
2018-05-03T14:08:54.961Z,44.70
2018-05-03T14:11:23.288Z,45.20
2018-05-03T14:13:51.569Z,47.20
2018-05-03T14:16:19.893Z,44.10
2018-05-03T14:18:48.172Z,45.80
2018-05-03T14:21:18.708Z,44.10
2018-05-03T14:23:46.995Z,44.10
2018-05-03T14:26:15.272Z,43.50
2018-05-03T14:28:43.601Z,43.70
2018-05-03T14:31:11.959Z,42.50
2018-05-03T14:33:40.257Z,41.70
2018-05-03T14:36:08.545Z,43.20
2018-05-03T14:38:36.877Z,44.40
2018-05-03T14:41:05.925Z,45.10
2018-05-03T14:43:34.253Z,45.10
2018-05-03T14:46:02.701Z,45.90
2018-05-03T14:48:31.033Z,44.90
2018-05-03T14:50:59.361Z,45.40
2018-05-03T14:53:27.645Z,45.20
2018-05-03T14:55:55.973Z,45.90
2018-05-03T14:58:24.256Z,45.00
2018-05-03T15:00:52.609Z,46.00
2018-05-03T15:03:21.644Z,44.40
2018-05-03T15:05:49.985Z,44.40
2018-05-03T15:08:18.316Z,43.40
2018-05-03T15:10:46.641Z,42.50
2018-05-03T15:13:15.236Z,44.10
2018-05-03T15:15:43.521Z,43.80
2018-05-03T15:18:11.839Z,48.20
2018-05-03T15:20:40.145Z,52.10
2018-05-03T15:23:09.216Z,56.30
2018-05-03T15:25:37.604Z,56.30
2018-05-03T15:28:05.940Z,56.90
2018-05-03T15:30:34.986Z,52.30
2018-05-03T15:33:03.320Z,52.40
2018-05-03T15:35:32.372Z,55.60
2018-05-03T15:38:00.656Z,55.40
2018-05-03T15:40:29.086Z,57.10
2018-05-03T15:42:57.416Z,56.20
2018-05-03T15:45:25.700Z,54.60
2018-05-03T15:47:54.868Z,53.50
2018-05-03T15:50:23.200Z,53.50
2018-05-03T15:52:52.552Z,56.20
2018-05-03T15:55:20.866Z,56.10
2018-05-03T15:57:49.149Z,55.30
2018-05-03T16:00:17.549Z,51.90
2018-05-03T16:02:45.824Z,51.80
2018-05-03T16:05:14.113Z,50.70
2018-05-03T16:07:42.510Z,51.80
2018-05-03T16:10:11.626Z,51.00
2018-05-03T16:12:39.906Z,51.00
2018-05-03T16:15:08.309Z,49.70
2018-05-03T16:17:36.595Z,48.60
2018-05-03T16:20:04.992Z,48.40
2018-05-03T16:22:33.321Z,46.20
2018-05-03T16:25:02.365Z,46.50
2018-05-03T16:27:30.761Z,46.40
2018-05-03T16:29:59.377Z,46.70
2018-05-03T16:32:27.765Z,46.30
2018-05-03T16:34:56.049Z,46.60
2018-05-03T16:37:24.388Z,45.60
2018-05-03T16:39:53.456Z,44.50
2018-05-03T16:42:21.788Z,44.40
2018-05-03T16:44:50.093Z,43.50
2018-05-03T16:47:18.425Z,42.20
2018-05-03T16:49:46.718Z,41.50
2018-05-03T16:52:15.001Z,42.60
2018-05-03T16:54:43.335Z,43.40
2018-05-03T16:57:12.381Z,45.30
2018-05-03T16:59:40.709Z,45.20
2018-05-03T17:02:10.493Z,44.70
2018-05-03T17:04:38.829Z,44.60
2018-05-03T17:07:07.200Z,44.80
2018-05-03T17:09:35.481Z,45.50
2018-05-03T17:12:03.808Z,45.00
2018-05-03T17:14:32.861Z,44.60
2018-05-03T17:17:01.201Z,44.60
2018-05-03T17:19:29.530Z,44.80
2018-05-03T17:21:57.826Z,44.60
2018-05-03T17:24:26.154Z,44.80
2018-05-03T17:26:54.433Z,45.00
2018-05-03T17:29:22.764Z,45.90
2018-05-03T17:31:51.880Z,44.90
2018-05-03T17:34:20.161Z,44.90
2018-05-03T17:36:49.230Z,44.70
2018-05-03T17:39:17.827Z,44.70
2018-05-03T17:41:46.108Z,44.00
2018-05-03T17:44:14.397Z,44.00
2018-05-03T17:46:42.724Z,44.30
2018-05-03T17:49:11.817Z,43.40
2018-05-03T17:51:40.096Z,43.40
2018-05-03T17:54:08.693Z,43.30
2018-05-03T17:56:36.977Z,43.30
2018-05-03T17:59:05.260Z,43.30
2018-05-03T18:01:33.589Z,42.90
2018-05-03T18:04:02.773Z,42.70
2018-05-03T18:06:31.065Z,42.60
2018-05-03T18:08:59.760Z,42.50
2018-05-03T18:11:28.053Z,43.50
2018-05-03T18:13:56.332Z,43.30
2018-05-03T18:16:24.765Z,43.10
2018-05-03T18:18:53.016Z,44.30
2018-05-03T18:21:21.371Z,44.00
2018-05-03T18:23:49.649Z,44.10
2018-05-03T18:26:18.010Z,45.30
2018-05-03T18:28:46.352Z,45.10
2018-05-03T18:31:14.638Z,43.80
2018-05-03T18:33:42.981Z,44.50
2018-05-03T18:36:12.029Z,44.50
2018-05-03T18:38:40.352Z,44.40
2018-05-03T18:41:09.872Z,45.00
2018-05-03T18:43:38.261Z,44.40
2018-05-03T18:46:06.552Z,45.10
2018-05-03T18:48:34.885Z,44.20
2018-05-03T18:51:03.976Z,44.90
2018-05-03T18:53:32.297Z,44.80
2018-05-03T18:56:00.624Z,44.10
2018-05-03T18:58:28.913Z,44.40
2018-05-03T19:00:57.202Z,45.90
2018-05-03T19:03:25.533Z,45.50
2018-05-03T19:05:54.709Z,45.50
2018-05-03T19:08:22.996Z,45.30
2018-05-03T19:10:51.333Z,45.10
2018-05-03T19:13:19.701Z,45.50
2018-05-03T19:15:48.005Z,45.50
2018-05-03T19:18:17.109Z,46.20
2018-05-03T19:20:46.226Z,46.80
2018-05-03T19:23:15.468Z,47.00
2018-05-03T19:25:43.693Z,47.00
2018-05-03T19:28:12.049Z,47.20
2018-05-03T19:30:40.328Z,47.90
2018-05-03T19:33:08.614Z,47.90
2018-05-03T19:35:37.074Z,48.00
2018-05-03T19:38:05.277Z,48.60
2018-05-03T19:40:33.565Z,48.30
2018-05-03T19:43:01.900Z,49.10
2018-05-03T19:45:30.229Z,49.40
2018-05-03T19:47:59.281Z,49.50
2018-05-03T19:50:27.600Z,49.50
2018-05-03T19:52:56.197Z,49.80
2018-05-03T19:55:24.560Z,50.40
2018-05-03T19:57:52.833Z,50.40
2018-05-03T20:00:21.177Z,51.50
2018-05-03T20:02:49.557Z,51.40
2018-05-03T20:05:17.897Z,51.70
2018-05-03T20:07:46.183Z,51.70
2018-05-03T20:10:14.524Z,51.60
2018-05-03T20:12:42.830Z,51.50
2018-05-03T20:15:12.650Z,52.10
2018-05-03T20:17:41.761Z,52.30
2018-05-03T20:20:10.045Z,52.30
2018-05-03T20:22:38.428Z,52.40
2018-05-03T20:25:06.765Z,52.50
2018-05-03T20:27:35.418Z,52.90
2018-05-03T20:30:03.705Z,53.50
2018-05-03T20:32:31.988Z,54.00
2018-05-03T20:35:00.322Z,53.30
2018-05-03T20:37:29.375Z,54.20
2018-05-03T20:39:57.705Z,54.10
2018-05-03T20:42:26.764Z,54.60
2018-05-03T20:44:55.093Z,54.60
2018-05-03T20:47:23.376Z,55.00
2018-05-03T20:49:51.724Z,55.20
2018-05-03T20:52:20.009Z,55.40
2018-05-03T20:54:48.300Z,55.70
2018-05-03T20:57:16.633Z,55.60
2018-05-03T20:59:44.920Z,55.30
2018-05-03T21:02:13.305Z,55.50
2018-05-03T21:04:41.699Z,56.70
2018-05-03T21:07:10.054Z,56.20
2018-05-03T21:09:38.372Z,56.60
2018-05-03T21:12:06.660Z,56.50
2018-05-03T21:14:35.005Z,56.40
2018-05-03T21:17:03.285Z,56.70
2018-05-03T21:19:32.337Z,57.50
2018-05-03T21:22:00.749Z,57.40
2018-05-03T21:24:30.545Z,58.30
2018-05-03T21:26:58.959Z,58.20
2018-05-03T21:29:27.248Z,58.10
2018-05-03T21:31:55.576Z,58.40
2018-05-03T21:34:24.676Z,59.40
2018-05-03T21:36:53.728Z,60.30
2018-05-03T21:39:22.067Z,60.20
2018-05-03T21:41:50.349Z,61.50
2018-05-03T21:44:18.735Z,62.10
2018-05-03T21:46:47.073Z,61.70
2018-05-03T21:49:15.357Z,61.00
2018-05-03T21:51:43.640Z,61.40
2018-05-03T21:54:12.741Z,62.60
2018-05-03T21:56:42.008Z,62.40
2018-05-03T21:59:10.293Z,62.50
2018-05-03T22:01:38.613Z,62.10
2018-05-03T22:04:06.962Z,63.40
2018-05-03T22:06:35.246Z,64.20
2018-05-03T22:09:03.540Z,64.70
2018-05-03T22:11:31.880Z,65.20
2018-05-03T22:14:00.252Z,65.90
2018-05-03T22:16:28.492Z,67.10
2018-05-03T22:18:56.772Z,68.30
2018-05-03T22:21:25.861Z,68.90
2018-05-03T22:23:54.240Z,68.80
2018-05-03T22:26:22.581Z,68.00
2018-05-03T22:28:50.857Z,67.70
2018-05-03T22:31:19.901Z,68.20
2018-05-03T22:33:48.229Z,68.10
2018-05-03T22:36:16.504Z,67.20
2018-05-03T22:38:44.893Z,66.80
2018-05-03T22:41:13.169Z,67.80
2018-05-03T22:43:41.496Z,69.20
2018-05-03T22:46:09.777Z,70.30
2018-05-03T22:48:38.106Z,70.70
2018-05-03T22:51:06.386Z,71.00
2018-05-03T22:53:35.476Z,71.70
2018-05-03T22:56:03.848Z,71.70
2018-05-03T22:58:32.236Z,71.50
2018-05-03T23:01:00.628Z,70.60
2018-05-03T23:03:28.906Z,70.80
2018-05-03T23:05:57.184Z,72.80
2018-05-03T23:08:25.505Z,72.90
2018-05-03T23:10:53.781Z,73.30
2018-05-03T23:13:22.115Z,73.40
2018-05-03T23:15:51.180Z,72.60
2018-05-03T23:18:19.456Z,72.60
2018-05-03T23:20:47.868Z,73.70
2018-05-03T23:23:16.149Z,74.20
2018-05-03T23:25:44.426Z,74.90
2018-05-03T23:28:12.764Z,75.80
2018-05-03T23:30:41.813Z,76.80
2018-05-03T23:33:10.089Z,76.80
2018-05-03T23:35:38.732Z,77.30
2018-05-03T23:38:07.004Z,77.60
2018-05-03T23:40:35.284Z,78.00
2018-05-03T23:43:03.613Z,76.80
2018-05-03T23:45:33.440Z,78.50
2018-05-03T23:48:01.717Z,78.40
2018-05-03T23:50:30.041Z,77.90
2018-05-03T23:52:59.117Z,79.20
2018-05-03T23:55:27.445Z,79.00
2018-05-03T23:57:56.489Z,82.20
